createdAt,value
2017-12-03T00:02:12.671Z,-0.20
2017-12-03T00:04:40.227Z,-0.20
2017-12-03T00:07:08.126Z,-0.10
2017-12-03T00:09:35.668Z,-0.10
2017-12-03T00:12:03.796Z,-0.20
2017-12-03T00:14:31.563Z,-0.20
2017-12-03T00:17:00.107Z,-0.20
2017-12-03T00:19:27.718Z,-0.20
2017-12-03T00:21:55.733Z,-0.30
2017-12-03T00:24:25.266Z,-0.30
2017-12-03T00:26:53.019Z,-0.30
2017-12-03T00:29:20.563Z,-0.30
2017-12-03T00:31:48.068Z,-0.30
2017-12-03T00:34:15.793Z,-0.40
2017-12-03T00:36:44.431Z,-0.30
2017-12-03T00:39:12.374Z,-0.30
2017-12-03T00:41:39.866Z,-0.30
2017-12-03T00:44:08.594Z,-0.30
2017-12-03T00:46:36.984Z,-0.30
2017-12-03T00:49:04.499Z,-0.40
2017-12-03T00:51:32.415Z,-0.30
2017-12-03T00:53:59.927Z,-0.30
2017-12-03T00:56:28.275Z,-0.30
2017-12-03T00:58:55.811Z,-0.30
2017-12-03T01:01:24.176Z,-0.30
2017-12-03T01:03:51.670Z,-0.30
2017-12-03T01:06:19.157Z,-0.30
2017-12-03T01:08:48.599Z,-0.20
2017-12-03T01:11:16.083Z,-0.30
2017-12-03T01:13:43.583Z,-0.30
2017-12-03T01:16:11.063Z,-0.20
2017-12-03T01:18:38.575Z,-0.20
2017-12-03T01:21:06.477Z,-0.20
2017-12-03T01:23:34.003Z,-0.20
2017-12-03T01:26:01.891Z,-0.20
2017-12-03T01:28:30.362Z,-0.20
2017-12-03T01:30:58.239Z,-0.20
2017-12-03T01:33:26.600Z,-0.20
2017-12-03T01:35:54.482Z,-0.20
2017-12-03T01:38:21.987Z,-0.20
2017-12-03T01:40:49.475Z,-0.30
2017-12-03T01:43:16.983Z,-0.30
2017-12-03T01:45:44.468Z,-0.30
2017-12-03T01:48:13.920Z,-0.30
2017-12-03T01:50:42.371Z,-0.30
2017-12-03T01:53:09.877Z,-0.30
2017-12-03T01:55:37.364Z,-0.30
2017-12-03T01:58:04.878Z,-0.30
2017-12-03T02:00:32.355Z,-0.30
2017-12-03T02:02:59.859Z,-0.30
2017-12-03T02:05:27.359Z,-0.20
2017-12-03T02:07:54.858Z,-0.20
2017-12-03T02:10:22.339Z,-0.20
2017-12-03T02:12:49.840Z,-0.20
2017-12-03T02:15:17.324Z,-0.30
2017-12-03T02:17:44.821Z,-0.30
2017-12-03T02:20:12.691Z,-0.30
2017-12-03T02:22:40.588Z,-0.30
2017-12-03T02:25:08.072Z,-0.30
2017-12-03T02:27:35.579Z,-0.30
2017-12-03T02:30:03.473Z,-0.30
2017-12-03T02:32:30.992Z,-0.30
2017-12-03T02:34:59.827Z,-0.30
2017-12-03T02:37:27.351Z,-0.30
2017-12-03T02:39:55.231Z,-0.30
2017-12-03T02:42:22.723Z,-0.30
2017-12-03T02:44:50.221Z,-0.30
2017-12-03T02:47:18.111Z,-0.30
2017-12-03T02:49:45.635Z,-0.30
2017-12-03T02:52:13.138Z,-0.30
2017-12-03T02:54:40.634Z,-0.30
2017-12-03T02:57:08.118Z,-0.30
2017-12-03T02:59:37.563Z,-0.30
2017-12-03T03:02:05.046Z,-0.30
2017-12-03T03:04:32.547Z,-0.30
2017-12-03T03:07:00.434Z,-0.30
2017-12-03T03:09:27.938Z,-0.30
2017-12-03T03:11:55.416Z,-0.30
2017-12-03T03:14:22.931Z,-0.30
2017-12-03T03:16:50.413Z,-0.30
2017-12-03T03:19:19.857Z,-0.30
2017-12-03T03:21:47.348Z,-0.30
2017-12-03T03:24:14.855Z,-0.20
2017-12-03T03:26:42.331Z,-0.20
2017-12-03T03:29:10.234Z,-0.30
2017-12-03T03:31:37.728Z,-0.30
2017-12-03T03:34:05.223Z,-0.30
2017-12-03T03:36:32.706Z,-0.20
2017-12-03T03:39:00.221Z,-0.20
2017-12-03T03:41:28.114Z,-0.30
2017-12-03T03:43:55.614Z,-0.30
2017-12-03T03:46:23.091Z,-0.20
2017-12-03T03:48:50.600Z,-0.20
2017-12-03T03:51:18.079Z,-0.20
2017-12-03T03:53:45.586Z,-0.20
2017-12-03T03:56:13.464Z,-0.30
2017-12-03T03:58:40.988Z,-0.30
2017-12-03T04:01:08.466Z,-0.30
2017-12-03T04:03:36.373Z,-0.30
2017-12-03T04:06:03.868Z,-0.30
2017-12-03T04:08:31.408Z,-0.30
2017-12-03T04:10:58.895Z,-0.30
2017-12-03T04:13:27.711Z,-0.30
2017-12-03T04:15:55.209Z,-0.30
2017-12-03T04:18:22.696Z,-0.30
2017-12-03T04:20:50.209Z,-0.30
2017-12-03T04:23:17.735Z,-0.30
2017-12-03T04:25:45.653Z,-0.30
2017-12-03T04:28:13.136Z,-0.30
2017-12-03T04:30:41.043Z,-0.30
2017-12-03T04:33:08.556Z,-0.30
2017-12-03T04:35:36.987Z,-0.30
2017-12-03T04:38:04.479Z,-0.30
2017-12-03T04:40:31.979Z,-0.30
2017-12-03T04:42:59.879Z,-0.30
2017-12-03T04:45:28.349Z,-0.30
2017-12-03T04:47:55.855Z,-0.30
2017-12-03T04:50:23.354Z,-0.30
2017-12-03T04:52:50.843Z,-0.30
2017-12-03T04:55:18.343Z,-0.30
2017-12-03T04:57:45.846Z,-0.30
2017-12-03T05:00:13.329Z,-0.30
2017-12-03T05:02:40.848Z,-0.30
2017-12-03T05:05:08.336Z,-0.30
2017-12-03T05:07:35.831Z,-0.30
2017-12-03T05:10:03.320Z,-0.20
2017-12-03T05:12:30.826Z,-0.10
2017-12-03T05:14:58.319Z,-0.10
2017-12-03T05:17:26.224Z,-0.20
2017-12-03T05:19:53.731Z,-0.20
2017-12-03T05:22:21.211Z,-0.20
2017-12-03T05:24:48.720Z,-0.30
2017-12-03T05:27:16.203Z,-0.30
2017-12-03T05:29:43.735Z,-0.20
2017-12-03T05:32:11.220Z,-0.20
2017-12-03T05:34:38.724Z,-0.20
2017-12-03T05:37:06.200Z,-0.30
2017-12-03T05:39:33.687Z,-0.30
2017-12-03T05:42:01.184Z,-0.30
2017-12-03T05:44:28.663Z,-0.30
2017-12-03T05:46:56.163Z,-0.30
2017-12-03T05:49:24.051Z,-0.20
2017-12-03T05:51:51.944Z,-0.20
2017-12-03T05:54:19.452Z,-0.20
2017-12-03T05:56:46.931Z,-0.20
2017-12-03T05:59:14.839Z,-0.30
2017-12-03T06:01:42.318Z,-0.30
2017-12-03T06:04:09.836Z,-0.30
2017-12-03T06:06:37.315Z,-0.20
2017-12-03T06:09:04.818Z,-0.30
2017-12-03T06:11:32.313Z,-0.20
2017-12-03T06:13:59.796Z,-0.20
2017-12-03T06:16:27.303Z,-0.20
2017-12-03T06:18:54.791Z,-0.10
2017-12-03T06:21:22.291Z,-0.10
2017-12-03T06:23:49.771Z,-0.20
2017-12-03T06:26:17.737Z,-0.30
2017-12-03T06:28:45.611Z,-0.30
2017-12-03T06:31:13.489Z,-0.30
2017-12-03T06:33:41.413Z,-0.30
2017-12-03T06:36:08.883Z,-0.30
2017-12-03T06:38:36.384Z,-0.20
2017-12-03T06:41:03.889Z,-0.30
2017-12-03T06:43:31.396Z,-0.30
2017-12-03T06:45:58.891Z,-0.30
2017-12-03T06:48:27.315Z,-0.30
2017-12-03T06:50:55.872Z,-0.30
2017-12-03T06:53:23.359Z,-0.30
2017-12-03T06:55:51.263Z,-0.10
2017-12-03T06:58:18.749Z,-0.10
2017-12-03T07:00:46.244Z,-0.20
2017-12-03T07:03:14.158Z,-0.20
2017-12-03T07:05:41.635Z,-0.20
2017-12-03T07:08:09.134Z,-0.30
2017-12-03T07:10:37.022Z,-0.40
2017-12-03T07:13:04.528Z,-0.30
2017-12-03T07:15:32.007Z,-0.40
2017-12-03T07:17:59.906Z,-0.40
2017-12-03T07:20:28.328Z,-0.40
2017-12-03T07:22:55.844Z,-0.50
2017-12-03T07:25:25.340Z,-0.40
2017-12-03T07:27:52.824Z,-0.50
2017-12-03T07:30:20.336Z,-0.50
2017-12-03T07:32:48.260Z,-0.50
2017-12-03T07:35:15.768Z,-0.50
2017-12-03T07:37:43.644Z,-0.50
2017-12-03T07:40:11.118Z,-0.50
2017-12-03T07:42:38.622Z,-0.60
2017-12-03T07:45:06.128Z,-0.60
2017-12-03T07:47:33.782Z,-0.60
2017-12-03T07:50:01.639Z,-0.60
2017-12-03T07:52:31.095Z,-0.60
2017-12-03T07:54:59.510Z,-0.60
2017-12-03T07:57:27.416Z,-0.70
2017-12-03T07:59:54.904Z,-0.70
2017-12-03T08:02:24.375Z,-0.70
2017-12-03T08:04:51.972Z,-0.70
2017-12-03T08:07:19.471Z,-0.80
2017-12-03T08:09:46.956Z,-0.90
2017-12-03T08:12:16.398Z,-0.90
2017-12-03T08:14:43.897Z,-0.90
2017-12-03T08:17:11.415Z,-0.90
2017-12-03T08:19:39.843Z,-0.90
2017-12-03T08:22:07.350Z,-0.90
2017-12-03T08:24:34.834Z,-0.80
2017-12-03T08:27:02.740Z,-0.80
2017-12-03T08:29:31.217Z,-0.80
2017-12-03T08:31:58.720Z,-0.80
2017-12-03T08:34:26.203Z,-0.80
2017-12-03T08:36:54.079Z,-0.80
2017-12-03T08:39:21.590Z,-0.80
2017-12-03T08:41:49.070Z,-0.70
2017-12-03T08:44:16.984Z,-0.70
2017-12-03T08:46:44.469Z,-0.70
2017-12-03T08:49:11.981Z,-0.80
2017-12-03T08:51:39.466Z,-0.80
2017-12-03T08:54:06.971Z,-0.80
2017-12-03T08:56:34.864Z,-0.70
2017-12-03T08:59:02.373Z,-0.70
2017-12-03T09:01:31.828Z,-0.70
2017-12-03T09:03:59.308Z,-0.70
2017-12-03T09:06:26.808Z,-0.60
2017-12-03T09:08:54.309Z,-0.50
2017-12-03T09:11:21.795Z,-0.50
2017-12-03T09:13:49.299Z,-0.50
2017-12-03T09:16:17.189Z,-0.60
2017-12-03T09:18:44.707Z,-0.60
2017-12-03T09:21:12.211Z,-0.60
2017-12-03T09:23:39.738Z,-0.50
2017-12-03T09:26:07.634Z,-0.60
2017-12-03T09:28:35.136Z,-0.60
2017-12-03T09:31:02.715Z,-0.60
2017-12-03T09:33:30.603Z,-0.50
2017-12-03T09:35:58.111Z,-0.50
2017-12-03T09:38:25.599Z,-0.60
2017-12-03T09:40:54.462Z,-0.70
2017-12-03T09:43:21.954Z,-0.80
2017-12-03T09:45:49.856Z,-0.70
2017-12-03T09:48:17.362Z,-0.70
2017-12-03T09:50:44.854Z,-0.70
2017-12-03T09:53:12.360Z,-0.70
2017-12-03T09:55:39.846Z,-0.70
2017-12-03T09:58:07.349Z,-0.70
2017-12-03T10:00:34.835Z,-0.70
2017-12-03T10:03:02.323Z,-0.70
2017-12-03T10:05:30.221Z,-0.80
2017-12-03T10:07:57.723Z,-0.80
2017-12-03T10:10:25.251Z,-0.70
2017-12-03T10:12:52.734Z,-0.70
2017-12-03T10:15:20.298Z,-0.70
2017-12-03T10:17:47.809Z,-0.80
2017-12-03T10:20:15.319Z,-0.70
2017-12-03T10:22:42.791Z,-0.70
2017-12-03T10:25:10.267Z,-0.60
2017-12-03T10:27:38.215Z,-0.70
2017-12-03T10:30:05.695Z,-0.70
2017-12-03T10:32:33.591Z,-0.60
2017-12-03T10:35:02.035Z,-0.70
2017-12-03T10:37:29.936Z,-0.70
2017-12-03T10:39:57.422Z,-0.70
2017-12-03T10:42:24.916Z,-0.80
2017-12-03T10:44:52.786Z,-0.70
2017-12-03T10:47:20.687Z,-0.80
2017-12-03T10:49:48.180Z,-0.80
2017-12-03T10:52:15.678Z,-0.70
2017-12-03T10:54:43.164Z,-0.70
2017-12-03T10:57:10.677Z,-0.70
2017-12-03T10:59:38.578Z,-0.80
2017-12-03T11:02:06.063Z,-0.80
2017-12-03T11:04:33.554Z,-0.70
2017-12-03T11:07:01.479Z,-0.60
2017-12-03T11:09:28.992Z,-0.60
2017-12-03T11:11:56.903Z,-0.50
2017-12-03T11:14:24.571Z,-0.50
2017-12-03T11:16:52.067Z,-0.50
2017-12-03T11:19:19.543Z,-0.60
2017-12-03T11:21:47.431Z,-0.70
2017-12-03T11:24:14.940Z,-0.70
2017-12-03T11:26:42.440Z,-0.70
2017-12-03T11:29:11.942Z,-0.60
2017-12-03T11:31:39.422Z,-0.60
2017-12-03T11:34:06.933Z,-0.60
2017-12-03T11:36:34.828Z,-0.60
2017-12-03T11:39:02.353Z,-0.60
2017-12-03T11:41:29.853Z,-0.70
2017-12-03T11:43:57.399Z,-0.60
2017-12-03T11:46:24.914Z,-0.60
2017-12-03T11:48:53.340Z,-0.60
2017-12-03T11:51:20.851Z,-0.60
2017-12-03T11:53:48.344Z,-0.50
2017-12-03T11:56:16.255Z,-0.60
2017-12-03T11:58:44.699Z,-0.60
2017-12-03T12:01:12.190Z,-0.60
2017-12-03T12:03:39.692Z,-0.60
2017-12-03T12:06:08.529Z,-0.60
2017-12-03T12:08:36.020Z,-0.60
2017-12-03T12:11:03.495Z,-0.60
2017-12-03T12:13:31.747Z,-0.60
2017-12-03T12:15:59.231Z,-0.60
2017-12-03T12:18:27.111Z,-0.50
2017-12-03T12:20:55.012Z,-0.50
2017-12-03T12:23:22.506Z,-0.50
2017-12-03T12:25:50.015Z,-0.50
2017-12-03T12:28:17.524Z,-0.50
2017-12-03T12:30:45.032Z,-0.50
2017-12-03T12:33:12.521Z,-0.50
2017-12-03T12:35:40.012Z,-0.50
2017-12-03T12:38:07.520Z,-0.50
2017-12-03T12:40:35.011Z,-0.50
2017-12-03T12:43:02.523Z,-0.60
2017-12-03T12:45:30.009Z,-0.50
2017-12-03T12:47:57.522Z,-0.50
2017-12-03T12:50:25.395Z,-0.50
2017-12-03T12:52:52.911Z,-0.50
2017-12-03T12:55:20.403Z,-0.50
2017-12-03T12:57:48.306Z,-0.50
2017-12-03T13:00:15.830Z,-0.50
2017-12-03T13:02:43.311Z,-0.40
2017-12-03T13:05:12.765Z,-0.40
2017-12-03T13:07:40.283Z,-0.30
2017-12-03T13:10:07.784Z,-0.30
2017-12-03T13:12:35.333Z,-0.30
2017-12-03T13:15:03.872Z,-0.40
2017-12-03T13:17:31.356Z,-0.40
2017-12-03T13:19:58.836Z,-0.40
2017-12-03T13:22:26.345Z,-0.40
2017-12-03T13:24:54.804Z,-0.40
2017-12-03T13:27:24.307Z,-0.40
2017-12-03T13:29:52.180Z,-0.30
2017-12-03T13:32:20.077Z,-0.30
2017-12-03T13:34:48.002Z,-0.40
2017-12-03T13:37:15.887Z,-0.30
2017-12-03T13:39:43.406Z,-0.30
2017-12-03T13:42:10.892Z,-0.30
2017-12-03T13:44:38.789Z,-0.20
2017-12-03T13:47:06.279Z,-0.20
2017-12-03T13:49:33.778Z,-0.30
2017-12-03T13:52:01.276Z,-0.40
2017-12-03T13:54:28.774Z,-0.30
2017-12-03T13:56:56.275Z,-0.30
2017-12-03T13:59:23.764Z,-0.40
2017-12-03T14:01:51.262Z,-0.30
2017-12-03T14:04:19.170Z,-0.30
2017-12-03T14:06:46.673Z,-0.30
2017-12-03T14:09:15.098Z,-0.30
2017-12-03T14:11:42.608Z,-0.30
2017-12-03T14:14:10.111Z,-0.20
2017-12-03T14:16:37.604Z,-0.20
2017-12-03T14:19:05.121Z,-0.20
2017-12-03T14:21:32.605Z,-0.20
2017-12-03T14:24:00.116Z,-0.30
2017-12-03T14:26:28.017Z,-0.20
2017-12-03T14:28:57.472Z,-0.30
2017-12-03T14:31:24.976Z,-0.30
2017-12-03T14:33:52.765Z,-0.20
2017-12-03T14:36:20.284Z,-0.10
2017-12-03T14:38:47.774Z,-0.20
2017-12-03T14:41:16.216Z,-0.20
2017-12-03T14:43:44.566Z,-0.20
2017-12-03T14:46:12.062Z,-0.30
2017-12-03T14:48:39.547Z,-0.30
2017-12-03T14:51:07.053Z,-0.30
2017-12-03T14:53:34.934Z,-0.20
2017-12-03T14:56:02.820Z,-0.30
2017-12-03T14:58:30.329Z,-0.20
2017-12-03T15:00:57.821Z,-0.30
2017-12-03T15:03:25.336Z,-0.30
2017-12-03T15:05:52.812Z,-0.20
2017-12-03T15:08:21.298Z,-0.20
2017-12-03T15:10:49.186Z,-0.30
2017-12-03T15:13:16.696Z,-0.30
2017-12-03T15:15:45.075Z,-0.30
2017-12-03T15:18:12.567Z,-0.30
2017-12-03T15:20:40.460Z,-0.40
2017-12-03T15:23:08.901Z,-0.40
2017-12-03T15:25:36.828Z,-0.30
2017-12-03T15:28:04.317Z,-0.30
2017-12-03T15:30:31.815Z,-0.30
2017-12-03T15:32:59.295Z,-0.40
2017-12-03T15:35:26.777Z,-0.40
2017-12-03T15:37:54.279Z,-0.30
2017-12-03T15:40:22.155Z,-0.40
2017-12-03T15:42:49.668Z,-0.40
2017-12-03T15:45:28.008Z,-0.40
2017-12-03T15:47:56.816Z,-0.30
2017-12-03T15:50:24.344Z,-0.30
2017-12-03T15:52:51.845Z,-0.40
2017-12-03T15:55:19.359Z,-0.40
2017-12-03T15:57:46.835Z,-0.40
2017-12-03T16:00:14.748Z,-0.40
2017-12-03T16:02:42.235Z,-0.40
2017-12-03T16:05:09.718Z,-0.30
2017-12-03T16:07:37.606Z,-0.30
2017-12-03T16:10:05.097Z,-0.30
2017-12-03T16:12:32.619Z,-0.30
2017-12-03T16:15:00.104Z,-0.40
2017-12-03T16:17:27.626Z,-0.30
2017-12-03T16:19:55.114Z,-0.30
2017-12-03T16:22:22.608Z,-0.40
2017-12-03T16:24:50.114Z,-0.40
2017-12-03T16:27:17.680Z,-0.40
2017-12-03T16:29:45.205Z,-0.40
2017-12-03T16:32:13.100Z,-0.30
2017-12-03T16:34:42.582Z,-0.30
2017-12-03T16:37:10.479Z,-0.40
2017-12-03T16:39:37.963Z,-0.40
2017-12-03T16:42:05.469Z,-0.30
2017-12-03T16:44:33.918Z,-0.40
2017-12-03T16:47:01.433Z,-0.30
2017-12-03T16:49:29.864Z,-0.40
2017-12-03T16:51:57.367Z,-0.50
2017-12-03T16:54:26.787Z,-0.40
2017-12-03T16:56:54.315Z,-0.40
2017-12-03T16:59:21.834Z,-0.40
2017-12-03T17:01:49.351Z,-0.40
2017-12-03T17:04:16.887Z,-0.40
2017-12-03T17:06:44.895Z,-0.40
2017-12-03T17:09:12.373Z,-0.40
2017-12-03T17:11:41.824Z,-0.40
2017-12-03T17:14:09.305Z,-0.40
2017-12-03T17:16:36.787Z,-0.40
2017-12-03T17:19:04.366Z,-0.40
2017-12-03T17:21:33.199Z,-0.40
2017-12-03T17:24:00.708Z,-0.40
2017-12-03T17:26:28.186Z,-0.40
2017-12-03T17:28:56.089Z,-0.40
2017-12-03T17:31:23.573Z,-0.40
2017-12-03T17:33:51.055Z,-0.40
2017-12-03T17:36:20.890Z,-0.40
2017-12-03T17:38:48.791Z,-0.40
2017-12-03T17:41:16.303Z,-0.40
2017-12-03T17:43:44.180Z,-0.40
2017-12-03T17:46:12.060Z,-0.40
2017-12-03T17:48:39.558Z,-0.40
2017-12-03T17:51:07.082Z,-0.40
2017-12-03T17:53:34.738Z,-0.40
2017-12-03T17:56:02.251Z,-0.30
2017-12-03T17:58:29.739Z,-0.30
2017-12-03T18:00:57.615Z,-0.40
2017-12-03T18:03:27.051Z,-0.40
2017-12-03T18:05:54.566Z,-0.30
2017-12-03T18:08:23.410Z,-0.40
2017-12-03T18:10:50.920Z,-0.40
2017-12-03T18:13:18.792Z,-0.30
2017-12-03T18:15:47.229Z,-0.30
2017-12-03T18:18:14.738Z,-0.30
2017-12-03T18:20:42.232Z,-0.30
2017-12-03T18:23:09.767Z,-0.30
2017-12-03T18:25:37.258Z,-0.30
2017-12-03T18:28:04.799Z,-0.30
2017-12-03T18:30:32.311Z,-0.30
2017-12-03T18:33:00.184Z,-0.20
2017-12-03T18:35:28.563Z,-0.20
2017-12-03T18:37:56.050Z,-0.30
2017-12-03T18:40:23.610Z,-0.30
2017-12-03T18:42:51.126Z,-0.30
2017-12-03T18:45:19.045Z,-0.20
2017-12-03T18:47:47.508Z,-0.20
2017-12-03T18:50:14.999Z,-0.20
2017-12-03T18:52:42.556Z,-0.20
2017-12-03T18:55:10.158Z,-0.20
2017-12-03T18:57:38.084Z,-0.30
2017-12-03T19:00:05.602Z,-0.30
2017-12-03T19:02:33.094Z,-0.20
2017-12-03T19:05:03.569Z,-0.20
2017-12-03T19:07:31.448Z,-0.10
2017-12-03T19:09:59.007Z,-0.10
2017-12-03T19:12:26.515Z,-0.10
2017-12-03T19:14:54.011Z,-0.10
2017-12-03T19:17:21.905Z,-0.10
2017-12-03T19:19:49.443Z,-0.10
2017-12-03T19:22:17.359Z,-0.10
2017-12-03T19:24:44.872Z,-0.10
2017-12-03T19:27:13.309Z,-0.10
2017-12-03T19:29:40.822Z,-0.10
2017-12-03T19:32:08.304Z,-0.20
2017-12-03T19:34:36.819Z,-0.10
2017-12-03T19:37:04.328Z,-0.10
2017-12-03T19:39:31.838Z,0.00
2017-12-03T19:41:59.325Z,0.00
2017-12-03T19:44:26.843Z,0.00
2017-12-03T19:46:54.340Z,0.00
2017-12-03T19:49:21.812Z,0.00
2017-12-03T19:51:49.310Z,0.10
2017-12-03T19:54:16.814Z,0.10
2017-12-03T19:56:44.313Z,0.10
2017-12-03T19:59:12.772Z,0.10
2017-12-03T20:01:40.267Z,0.10
2017-12-03T20:04:07.787Z,0.10
2017-12-03T20:06:36.227Z,0.20
2017-12-03T20:09:05.042Z,0.00
2017-12-03T20:11:32.523Z,0.10
2017-12-03T20:14:00.023Z,0.00
2017-12-03T20:16:27.920Z,0.20
2017-12-03T20:18:57.332Z,0.20
2017-12-03T20:21:24.842Z,0.10
2017-12-03T20:23:52.343Z,0.10
2017-12-03T20:26:19.845Z,0.10
2017-12-03T20:28:47.343Z,0.20
2017-12-03T20:31:15.226Z,0.20
2017-12-03T20:33:42.711Z,0.20
2017-12-03T20:36:10.195Z,0.10
2017-12-03T20:38:37.687Z,0.20
2017-12-03T20:41:05.554Z,0.00
2017-12-03T20:43:33.059Z,0.00
2017-12-03T20:46:00.560Z,0.00
2017-12-03T20:48:28.448Z,0.10
2017-12-03T20:50:55.947Z,0.10
2017-12-03T20:53:23.440Z,0.10
2017-12-03T20:55:51.357Z,0.00
2017-12-03T20:58:18.860Z,0.00
2017-12-03T21:00:46.383Z,0.00
2017-12-03T21:03:13.875Z,0.00
2017-12-03T21:05:41.382Z,0.00
2017-12-03T21:08:08.886Z,0.00
2017-12-03T21:10:36.842Z,-0.10
2017-12-03T21:13:04.374Z,-0.10
2017-12-03T21:15:32.802Z,-0.10
2017-12-03T21:18:00.896Z,0.00
2017-12-03T21:20:28.767Z,0.00
2017-12-03T21:22:56.295Z,0.00
2017-12-03T21:25:24.725Z,0.00
2017-12-03T21:27:52.247Z,0.10
2017-12-03T21:30:20.146Z,0.00
2017-12-03T21:32:47.688Z,0.10
2017-12-03T21:35:15.620Z,0.00
2017-12-03T21:37:43.119Z,0.00
2017-12-03T21:40:11.039Z,-0.10
2017-12-03T21:42:38.524Z,-0.10
2017-12-03T21:45:06.434Z,0.00
2017-12-03T21:47:34.851Z,0.00
2017-12-03T21:50:02.375Z,0.00
2017-12-03T21:52:29.844Z,0.10
2017-12-03T21:54:57.360Z,0.10
2017-12-03T21:57:25.246Z,0.10
2017-12-03T21:59:52.731Z,0.10
2017-12-03T22:02:20.227Z,0.20
2017-12-03T22:04:48.980Z,0.10
2017-12-03T22:07:16.504Z,0.10
2017-12-03T22:09:44.003Z,0.20
2017-12-03T22:12:13.440Z,0.30
2017-12-03T22:14:41.310Z,0.40
2017-12-03T22:17:10.138Z,0.40
2017-12-03T22:19:37.660Z,0.40
2017-12-03T22:22:05.150Z,0.40
2017-12-03T22:24:34.631Z,0.30
2017-12-03T22:27:02.519Z,0.20
2017-12-03T22:29:30.037Z,0.20
2017-12-03T22:31:57.916Z,0.20
2017-12-03T22:34:25.829Z,0.20
2017-12-03T22:36:53.300Z,0.20
2017-12-03T22:39:20.792Z,0.10
2017-12-03T22:41:48.675Z,0.20
2017-12-03T22:44:16.158Z,0.20
2017-12-03T22:46:43.683Z,0.20
2017-12-03T22:49:12.447Z,0.10
2017-12-03T22:51:39.936Z,0.20
2017-12-03T22:54:08.707Z,0.20
2017-12-03T22:56:36.627Z,0.20
2017-12-03T23:08:01.479Z,0.30
